Time;durP1;ratioP1;P1;durP2;ratioP2;P2;SDS_P1;SDS_P2;PMS_P1;PMS_P2;Temp;Humidity;BMP_temperature;BMP_pressure;BME280_temperature;BME280_humidity;BME280_pressure;Samples;Min_cycle;Max_cycle;Signal;HPM_P1;HPM_P2
2022/06/15 00:00:54;;;;;;;4.13;3.72;;;;;;;;;;5056790;28;20513;-70
2022/06/15 00:03:20;;;;;;;4.70;3.45;;;;;;;;;;5058351;28;20021;-69
2022/06/15 00:05:45;;;;;;;3.83;3.45;;;;;;;;;;5058269;28;20024;-69
2022/06/15 00:08:11;;;;;;;10.70;3.83;;;;;;;;;;5058221;28;20551;-69
2022/06/15 00:10:36;;;;;;;5.07;3.50;;;;;;;;;;5062976;28;20032;-69
2022/06/15 00:13:01;;;;;;;4.90;3.73;;;;;;;;;;5059374;28;20034;-69
2022/06/15 00:15:26;;;;;;;7.55;4.93;;;;;;;;;;5057187;28;20252;-69
2022/06/15 00:17:51;;;;;;;3.72;3.40;;;;;;;;;;5057046;28;20025;-69
2022/06/15 00:20:17;;;;;;;6.13;3.72;;;;;;;;;;5056969;28;20024;-69
2022/06/15 00:22:42;;;;;;;5.50;3.70;;;;;;;;;;5065571;28;20013;-69
2022/06/15 00:25:08;;;;;;;7.03;3.75;;;;;;;;;;5069760;28;20081;-69
2022/06/15 00:27:34;;;;;;;7.93;3.90;;;;;;;;;;5064188;28;20074;-69
2022/06/15 00:29:59;;;;;;;9.23;4.43;;;;;;;;;;5065758;28;20028;-69
2022/06/15 00:32:24;;;;;;;4.70;3.83;;;;;;;;;;5064682;28;20035;-69
2022/06/15 00:34:49;;;;;;;10.45;4.35;;;;;;;;;;5069002;28;20785;-69
2022/06/15 00:37:15;;;;;;;4.07;3.72;;;;;;;;;;5066256;28;20378;-69
2022/06/15 00:39:40;;;;;;;5.50;4.10;;;;;;;;;;5067398;28;20021;-69
2022/06/15 00:42:05;;;;;;;4.22;3.58;;;;;;;;;;5066976;28;20062;-69
2022/06/15 00:44:33;;;;;;;5.28;3.95;;;;;;;;;;5068738;28;20099;-70
2022/06/15 00:47:04;;;;;;;3.97;3.58;;;;;;;;;;5068130;28;20016;-70
2022/06/15 00:49:29;;;;;;;4.80;3.75;;;;;;;;;;5067824;28;20036;-69
2022/06/15 00:51:58;;;;;;;7.32;4.30;;;;;;;;;;5065965;28;20017;-70
2022/06/15 00:54:23;;;;;;;6.43;4.13;;;;;;;;;;5068409;28;20032;-69
2022/06/15 00:56:49;;;;;;;4.63;3.65;;;;;;;;;;5068493;28;20026;-69
2022/06/15 00:59:15;;;;;;;8.63;3.85;;;;;;;;;;5067170;28;20491;-69
2022/06/15 01:01:41;;;;;;;5.63;4.15;;;;;;;;;;5070378;28;20029;-69
2022/06/15 01:04:06;;;;;;;4.78;3.80;;;;;;;;;;5063890;28;20029;-69
2022/06/15 01:06:56;;;;;;;4.63;4.07;;;;;;;;;;5064243;28;20115;-69
2022/06/15 01:09:21;;;;;;;7.05;4.15;;;;;;;;;;5065648;28;20067;-69
2022/06/15 01:11:53;;;;;;;7.13;3.70;;;;;;;;;;5067825;28;20159;-69
2022/06/15 01:14:37;;;;;;;6.05;3.83;;;;;;;;;;5063519;28;20349;-69
2022/06/15 01:17:02;;;;;;;4.90;3.58;;;;;;;;;;5068151;28;20021;-69
2022/06/15 01:19:42;;;;;;;4.72;3.80;;;;;;;;;;5066000;28;20070;-69
2022/06/15 01:22:13;;;;;;;4.47;3.92;;;;;;;;;;5059770;28;20044;-69
2022/06/15 01:24:44;;;;;;;5.50;4.50;;;;;;;;;;5064286;28;20052;-69
2022/06/15 01:27:10;;;;;;;4.72;4.20;;;;;;;;;;5063142;28;20035;-69
2022/06/15 01:29:39;;;;;;;7.50;4.50;;;;;;;;;;5063947;28;20024;-69
2022/06/15 01:32:17;;;;;;;6.22;4.40;;;;;;;;;;5063577;28;20025;-69
2022/06/15 01:35:01;;;;;;;6.53;4.50;;;;;;;;;;5063504;28;20455;-69
2022/06/15 01:37:47;;;;;;;4.85;3.97;;;;;;;;;;5065646;28;20540;-69
2022/06/15 01:40:16;;;;;;;6.13;4.28;;;;;;;;;;5063647;28;20044;-69
2022/06/15 01:42:43;;;;;;;4.25;3.92;;;;;;;;;;5065563;28;20060;-69
2022/06/15 01:45:10;;;;;;;5.97;4.10;;;;;;;;;;5061381;28;20534;-69
2022/06/15 01:47:37;;;;;;;5.55;4.05;;;;;;;;;;5066511;28;20037;-69
2022/06/15 01:50:14;;;;;;;6.85;4.25;;;;;;;;;;5065157;28;20021;-69
2022/06/15 01:53:05;;;;;;;8.55;4.97;;;;;;;;;;5062648;28;20075;-69
2022/06/15 01:55:34;;;;;;;12.18;5.00;;;;;;;;;;5062419;28;20131;-69
2022/06/15 01:58:02;;;;;;;6.72;4.68;;;;;;;;;;5067139;28;20021;-69
2022/06/15 02:00:28;;;;;;;6.43;4.20;;;;;;;;;;5063981;28;20055;-69
2022/06/15 02:03:14;;;;;;;5.30;4.80;;;;;;;;;;5062294;28;20020;-69
2022/06/15 02:05:39;;;;;;;7.30;5.30;;;;;;;;;;5062026;28;20038;-69
2022/06/15 02:08:30;;;;;;;6.65;4.53;;;;;;;;;;5063817;28;20028;-69
2022/06/15 02:10:58;;;;;;;5.00;4.60;;;;;;;;;;5033583;28;20226;-69
2022/06/15 02:13:30;;;;;;;5.05;4.63;;;;;;;;;;5064744;28;20020;-69
2022/06/15 02:16:00;;;;;;;5.85;4.60;;;;;;;;;;5059327;28;20473;-69
2022/06/15 02:18:27;;;;;;;5.82;4.60;;;;;;;;;;5065285;28;20402;-69
2022/06/15 02:20:56;;;;;;;6.15;5.30;;;;;;;;;;5059565;28;20497;-69
2022/06/15 02:23:22;;;;;;;5.38;4.40;;;;;;;;;;5064604;28;20040;-69
2022/06/15 02:25:51;;;;;;;5.50;4.18;;;;;;;;;;5062030;28;20335;-69
2022/06/15 02:28:17;;;;;;;7.63;4.30;;;;;;;;;;5064494;28;20055;-69
2022/06/15 02:30:43;;;;;;;4.50;4.10;;;;;;;;;;5058059;28;20124;-69
2022/06/15 02:33:13;;;;;;;6.93;4.47;;;;;;;;;;5067188;28;20071;-69
2022/06/15 02:35:39;;;;;;;8.27;4.35;;;;;;;;;;5059542;28;20027;-69
2022/06/15 02:38:04;;;;;;;6.93;4.32;;;;;;;;;;5055062;28;20367;-69
2022/06/15 02:40:29;;;;;;;7.83;5.07;;;;;;;;;;5063707;28;20541;-69
2022/06/15 02:42:55;;;;;;;5.33;4.40;;;;;;;;;;5066513;28;20261;-69
2022/06/15 02:45:23;;;;;;;5.00;4.40;;;;;;;;;;5059341;28;20669;-69
2022/06/15 02:47:48;;;;;;;5.20;4.70;;;;;;;;;;5064162;28;20066;-69
2022/06/15 02:50:18;;;;;;;5.15;4.65;;;;;;;;;;5057686;28;20115;-69
2022/06/15 02:52:47;;;;;;;7.10;4.72;;;;;;;;;;5063878;28;20025;-69
2022/06/15 02:55:13;;;;;;;11.93;5.55;;;;;;;;;;5062577;28;20466;-69
2022/06/15 02:58:03;;;;;;;7.32;4.93;;;;;;;;;;5060554;28;20019;-69
2022/06/15 03:00:28;;;;;;;6.03;5.05;;;;;;;;;;5060068;28;20028;-69
2022/06/15 03:02:53;;;;;;;7.22;4.93;;;;;;;;;;5062870;28;20059;-69
2022/06/15 03:05:18;;;;;;;9.25;5.28;;;;;;;;;;5064564;28;20379;-69
2022/06/15 03:07:43;;;;;;;5.77;4.70;;;;;;;;;;5062113;28;20040;-69
2022/06/15 03:10:09;;;;;;;6.90;5.03;;;;;;;;;;5060104;28;20269;-69
2022/06/15 03:12:34;;;;;;;8.73;4.75;;;;;;;;;;5064465;28;20431;-69
2022/06/15 03:14:59;;;;;;;7.25;5.00;;;;;;;;;;5062022;28;20046;-69
2022/06/15 03:17:24;;;;;;;16.00;5.38;;;;;;;;;;5065132;28;20505;-69
2022/06/15 03:19:50;;;;;;;8.73;5.33;;;;;;;;;;5064374;28;20033;-69
2022/06/15 03:22:15;;;;;;;8.23;5.47;;;;;;;;;;5061706;28;20277;-69
2022/06/15 03:24:40;;;;;;;7.75;4.65;;;;;;;;;;5060187;28;20048;-69
2022/06/15 03:27:05;;;;;;;8.85;4.82;;;;;;;;;;5064883;28;20024;-69
2022/06/15 03:29:31;;;;;;;9.23;5.20;;;;;;;;;;5063630;28;20375;-69
2022/06/15 03:31:56;;;;;;;6.97;4.60;;;;;;;;;;5063058;28;20021;-69
2022/06/15 03:34:21;;;;;;;9.57;5.47;;;;;;;;;;5062927;28;20388;-69
2022/06/15 03:36:46;;;;;;;4.95;4.10;;;;;;;;;;5063074;28;20066;-69
2022/06/15 03:39:11;;;;;;;6.77;5.00;;;;;;;;;;5054903;28;20017;-69
2022/06/15 03:41:37;;;;;;;7.97;5.00;;;;;;;;;;5063648;28;20411;-69
2022/06/15 03:44:02;;;;;;;9.85;4.85;;;;;;;;;;5058820;28;20486;-69
2022/06/15 03:46:29;;;;;;;7.68;4.90;;;;;;;;;;5061797;28;20025;-69
2022/06/15 03:48:54;;;;;;;6.20;4.85;;;;;;;;;;5061696;28;20134;-69
2022/06/15 03:51:19;;;;;;;8.63;5.22;;;;;;;;;;5064085;28;20453;-69
2022/06/15 03:53:44;;;;;;;7.32;4.57;;;;;;;;;;5059018;28;20502;-69
2022/06/15 03:56:09;;;;;;;9.07;4.90;;;;;;;;;;5063139;28;20096;-69
2022/06/15 03:58:35;;;;;;;13.37;5.07;;;;;;;;;;5072978;28;20265;-69
2022/06/15 04:01:00;;;;;;;6.83;5.30;;;;;;;;;;5063192;28;20312;-69
2022/06/15 04:03:25;;;;;;;5.77;4.73;;;;;;;;;;5067365;28;20273;-69
2022/06/15 04:05:53;;;;;;;11.35;5.53;;;;;;;;;;5066465;28;20360;-69
2022/06/15 04:08:35;;;;;;;8.05;4.97;;;;;;;;;;5069674;28;20031;-69
2022/06/15 04:11:02;;;;;;;10.90;5.35;;;;;;;;;;5066217;28;20058;-69
2022/06/15 04:13:27;;;;;;;6.35;5.50;;;;;;;;;;5067361;28;20044;-69
2022/06/15 04:15:52;;;;;;;7.55;5.25;;;;;;;;;;5063496;28;20020;-69
2022/06/15 04:18:17;;;;;;;10.85;5.35;;;;;;;;;;5067703;28;20013;-69
2022/06/15 04:20:43;;;;;;;6.13;4.88;;;;;;;;;;5067988;28;20067;-69
2022/06/15 04:23:09;;;;;;;9.25;5.57;;;;;;;;;;5065392;28;20366;-69
2022/06/15 04:25:36;;;;;;;7.75;5.03;;;;;;;;;;5066916;28;20040;-70
2022/06/15 04:28:02;;;;;;;9.45;5.22;;;;;;;;;;5067148;28;20028;-69
2022/06/15 04:30:27;;;;;;;8.10;5.32;;;;;;;;;;5070164;28;20067;-69
2022/06/15 04:32:52;;;;;;;8.98;5.63;;;;;;;;;;5065184;28;20031;-70
2022/06/15 04:35:18;;;;;;;8.00;6.45;;;;;;;;;;5070405;28;20047;-70
2022/06/15 04:37:43;;;;;;;9.25;5.75;;;;;;;;;;5056388;28;20040;-69
2022/06/15 04:40:08;;;;;;;9.13;6.03;;;;;;;;;;5064337;28;20101;-69
2022/06/15 04:42:35;;;;;;;10.48;5.63;;;;;;;;;;5068054;28;20281;-69
2022/06/15 04:45:00;;;;;;;6.93;6.20;;;;;;;;;;5068358;28;20036;-69
2022/06/15 04:47:25;;;;;;;10.10;5.47;;;;;;;;;;5068766;28;20310;-69
2022/06/15 04:49:50;;;;;;;12.43;5.18;;;;;;;;;;5060708;28;20033;-69
2022/06/15 04:52:16;;;;;;;10.80;5.78;;;;;;;;;;5057284;28;20027;-69
2022/06/15 04:54:41;;;;;;;10.55;5.60;;;;;;;;;;5069550;28;20020;-69
2022/06/15 04:57:07;;;;;;;13.70;6.78;;;;;;;;;;5072782;28;20537;-69
2022/06/15 04:59:32;;;;;;;11.20;5.80;;;;;;;;;;5064542;28;20052;-69
2022/06/15 05:01:58;;;;;;;12.20;5.60;;;;;;;;;;5063701;28;20281;-65
2022/06/15 05:04:23;;;;;;;9.57;5.68;;;;;;;;;;5064285;28;20249;-70
2022/06/15 05:06:48;;;;;;;12.25;5.88;;;;;;;;;;5071141;28;20401;-70
2022/06/15 05:09:14;;;;;;;11.65;6.15;;;;;;;;;;5053976;28;20060;-70
2022/06/15 05:11:39;;;;;;;10.70;6.13;;;;;;;;;;5061310;28;20042;-68
2022/06/15 05:14:04;;;;;;;9.05;5.72;;;;;;;;;;5062334;28;20134;-68
2022/06/15 05:16:30;;;;;;;10.30;6.22;;;;;;;;;;5076098;28;20078;-70
2022/06/15 05:18:55;;;;;;;10.57;5.63;;;;;;;;;;5064299;28;20479;-71
2022/06/15 05:21:20;;;;;;;9.00;5.37;;;;;;;;;;5073554;28;20074;-69
2022/06/15 05:23:45;;;;;;;13.40;6.13;;;;;;;;;;5060070;28;20289;-71
2022/06/15 05:26:11;;;;;;;9.73;5.65;;;;;;;;;;5066650;28;20111;-70
2022/06/15 05:28:37;;;;;;;8.43;5.70;;;;;;;;;;5058385;28;20032;-81
2022/06/15 05:31:02;;;;;;;10.30;5.63;;;;;;;;;;5070144;28;20055;-69
2022/06/15 05:33:28;;;;;;;11.30;5.50;;;;;;;;;;5062272;28;20501;-69
2022/06/15 05:35:59;;;;;;;7.10;4.83;;;;;;;;;;5059008;28;20035;-70
2022/06/15 05:38:25;;;;;;;10.52;5.35;;;;;;;;;;5064785;28;20023;-71
2022/06/15 05:40:50;;;;;;;7.97;5.27;;;;;;;;;;5063381;28;20020;-70
2022/06/15 05:43:15;;;;;;;13.40;5.93;;;;;;;;;;5060606;28;20265;-70
2022/06/15 05:45:40;;;;;;;6.85;5.20;;;;;;;;;;5059946;28;20211;-70
2022/06/15 05:48:05;;;;;;;10.37;4.97;;;;;;;;;;5057356;28;20093;-70
2022/06/15 05:50:31;;;;;;;7.20;5.45;;;;;;;;;;5062552;28;20032;-70
2022/06/15 05:52:56;;;;;;;8.75;5.75;;;;;;;;;;5073642;28;20028;-69
2022/06/15 05:55:21;;;;;;;7.00;5.20;;;;;;;;;;5065572;28;20489;-70
2022/06/15 05:57:46;;;;;;;10.82;4.78;;;;;;;;;;5050987;28;20421;-69
2022/06/15 06:00:12;;;;;;;12.18;5.55;;;;;;;;;;5060932;28;20529;-70
2022/06/15 06:02:37;;;;;;;7.40;4.93;;;;;;;;;;5066855;28;20028;-70
2022/06/15 06:05:02;;;;;;;11.40;5.60;;;;;;;;;;5054439;28;20032;-70
2022/06/15 06:07:28;;;;;;;8.75;4.90;;;;;;;;;;5063709;28;20025;-70
2022/06/15 06:09:53;;;;;;;7.63;4.67;;;;;;;;;;5064540;28;20522;-70
2022/06/15 06:12:19;;;;;;;8.83;4.50;;;;;;;;;;5071266;28;20017;-70
2022/06/15 06:14:44;;;;;;;10.68;4.85;;;;;;;;;;5067170;28;20269;-70
2022/06/15 06:17:12;;;;;;;9.93;4.85;;;;;;;;;;5066993;28;20047;-71
2022/06/15 06:19:37;;;;;;;6.05;4.85;;;;;;;;;;5069489;28;20016;-71
2022/06/15 06:22:02;;;;;;;8.23;5.10;;;;;;;;;;5072465;28;20039;-71
2022/06/15 06:24:27;;;;;;;10.38;5.03;;;;;;;;;;5068271;28;20276;-71
2022/06/15 06:27:00;;;;;;;6.75;4.65;;;;;;;;;;5065043;28;20405;-71
2022/06/15 06:29:26;;;;;;;8.50;4.82;;;;;;;;;;5051917;28;20067;-70
2022/06/15 06:31:51;;;;;;;11.48;5.10;;;;;;;;;;5055938;28;20025;-71
2022/06/15 06:34:16;;;;;;;7.97;4.60;;;;;;;;;;5063812;28;20027;-69
2022/06/15 06:36:43;;;;;;;8.25;5.10;;;;;;;;;;5062740;28;20020;-69
2022/06/15 06:39:13;;;;;;;12.77;5.15;;;;;;;;;;5059010;28;20107;-69
2022/06/15 06:41:39;;;;;;;7.82;4.30;;;;;;;;;;5059503;28;20093;-69
2022/06/15 06:44:04;;;;;;;12.73;4.78;;;;;;;;;;5072103;28;20039;-70
2022/06/15 06:46:30;;;;;;;7.43;4.53;;;;;;;;;;5061371;28;20052;-69
2022/06/15 06:48:56;;;;;;;6.57;3.83;;;;;;;;;;5067158;28;20463;-71
2022/06/15 06:51:21;;;;;;;7.25;3.90;;;;;;;;;;5058566;28;20531;-70
2022/06/15 06:53:46;;;;;;;5.20;4.60;;;;;;;;;;5050456;28;20040;-70
2022/06/15 06:56:12;;;;;;;5.87;4.00;;;;;;;;;;5061321;28;20095;-70
2022/06/15 06:58:37;;;;;;;7.88;4.15;;;;;;;;;;5055486;28;20524;-71
2022/06/15 07:01:03;;;;;;;7.30;4.07;;;;;;;;;;5065380;28;20068;-70
2022/06/15 07:03:28;;;;;;;10.65;3.80;;;;;;;;;;5065059;28;20706;-70
2022/06/15 07:06:00;;;;;;;11.43;3.90;;;;;;;;;;5064831;28;20036;-69
2022/06/15 07:08:25;;;;;;;5.25;3.45;;;;;;;;;;5064846;28;20116;-70
2022/06/15 07:10:51;;;;;;;10.95;3.80;;;;;;;;;;5053163;28;20059;-69
2022/06/15 07:13:16;;;;;;;5.07;3.63;;;;;;;;;;5062909;28;20052;-71
2022/06/15 07:15:41;;;;;;;8.40;3.27;;;;;;;;;;5062077;28;20039;-69
2022/06/15 07:18:06;;;;;;;7.37;3.40;;;;;;;;;;5060031;28;20020;-69
2022/06/15 07:20:32;;;;;;;6.57;3.20;;;;;;;;;;5062396;28;20736;-69
2022/06/15 07:22:58;;;;;;;7.57;3.35;;;;;;;;;;5059848;28;20031;-69
2022/06/15 07:25:23;;;;;;;10.32;2.90;;;;;;;;;;5066307;28;20492;-70
2022/06/15 07:27:48;;;;;;;10.95;2.95;;;;;;;;;;5063345;28;20526;-69
2022/06/15 07:30:15;;;;;;;4.93;3.05;;;;;;;;;;5061143;28;20836;-69
2022/06/15 07:32:41;;;;;;;7.30;3.10;;;;;;;;;;5066387;28;20027;-70
2022/06/15 07:35:07;;;;;;;7.47;2.90;;;;;;;;;;5072619;28;20017;-69
2022/06/15 07:37:32;;;;;;;6.90;2.97;;;;;;;;;;5060588;28;20016;-69
2022/06/15 07:39:57;;;;;;;7.63;2.90;;;;;;;;;;5064901;28;20412;-69
2022/06/15 07:42:23;;;;;;;6.55;2.65;;;;;;;;;;5063213;28;20032;-69
2022/06/15 07:44:49;;;;;;;10.35;3.20;;;;;;;;;;5064683;28;20042;-69
2022/06/15 07:49:58;;;;;;;8.65;3.45;;;;;;;;;;5061311;28;20438;-71
2022/06/15 07:52:30;;;;;;;7.37;2.57;;;;;;;;;;5066851;28;20025;-70
2022/06/15 07:54:55;;;;;;;4.82;2.22;;;;;;;;;;5059939;28;20269;-69
2022/06/15 07:57:21;;;;;;;8.35;2.70;;;;;;;;;;5055997;28;20071;-67
2022/06/15 07:59:46;;;;;;;4.75;2.50;;;;;;;;;;5062478;28;20028;-71
2022/06/15 08:02:12;;;;;;;10.20;2.83;;;;;;;;;;5065565;28;20028;-69
2022/06/15 08:04:37;;;;;;;7.05;2.50;;;;;;;;;;5064574;28;20028;-70
2022/06/15 08:07:04;;;;;;;9.73;2.08;;;;;;;;;;5069171;28;20062;-69
2022/06/15 08:09:29;;;;;;;4.78;2.75;;;;;;;;;;5065178;28;20442;-68
2022/06/15 08:12:12;;;;;;;5.77;2.60;;;;;;;;;;5064436;28;20038;-69
2022/06/15 08:14:45;;;;;;;9.18;2.60;;;;;;;;;;5059740;28;20025;-70
2022/06/15 08:17:14;;;;;;;3.63;2.22;;;;;;;;;;5061306;28;20565;-71
2022/06/15 08:19:41;;;;;;;7.38;2.58;;;;;;;;;;5062640;28;20055;-70
2022/06/15 08:22:07;;;;;;;6.35;2.60;;;;;;;;;;5063464;28;20020;-68
2022/06/15 08:24:33;;;;;;;5.07;2.30;;;;;;;;;;5064853;28;20112;-71
2022/06/15 08:26:59;;;;;;;5.32;2.00;;;;;;;;;;5062481;28;20514;-69
2022/06/15 08:29:24;;;;;;;5.40;2.17;;;;;;;;;;5063170;28;20036;-70
2022/06/15 08:31:49;;;;;;;9.57;2.60;;;;;;;;;;5061271;28;20730;-70
2022/06/15 08:34:15;;;;;;;5.80;2.33;;;;;;;;;;5059735;28;20270;-69
2022/06/15 08:36:40;;;;;;;7.53;2.28;;;;;;;;;;5054918;28;20040;-68
2022/06/15 08:39:05;;;;;;;6.88;2.85;;;;;;;;;;5064605;28;20324;-68
2022/06/15 08:41:39;;;;;;;9.23;2.45;;;;;;;;;;5060650;28;20041;-69
2022/06/15 08:44:04;;;;;;;;;;;;;;;;;;5063872;28;20434;-70
2022/06/15 08:46:47;;;;;;;3.78;2.50;;;;;;;;;;5065462;28;20373;-68
2022/06/15 08:49:31;;;;;;;4.93;2.88;;;;;;;;;;5063078;28;20032;-69
2022/06/15 08:51:58;;;;;;;3.85;2.03;;;;;;;;;;5065207;28;20088;-70
2022/06/15 08:54:28;;;;;;;4.28;2.47;;;;;;;;;;5078419;28;20036;-71
2022/06/15 08:57:02;;;;;;;8.38;2.50;;;;;;;;;;5070572;28;20024;-69
2022/06/15 08:59:48;;;;;;;7.82;2.60;;;;;;;;;;5067627;28;20067;-70
2022/06/15 09:02:19;;;;;;;4.03;2.30;;;;;;;;;;5063590;28;20063;-75
2022/06/15 09:04:54;;;;;;;4.88;2.85;;;;;;;;;;5066538;28;20033;-72
2022/06/15 09:07:25;;;;;;;9.20;2.85;;;;;;;;;;5072009;28;20039;-70
2022/06/15 09:10:06;;;;;;;7.43;2.45;;;;;;;;;;5063325;28;20039;-70
2022/06/15 09:12:50;;;;;;;6.57;2.53;;;;;;;;;;5078232;28;20027;-72
2022/06/15 09:15:33;;;;;;;11.85;2.75;;;;;;;;;;5065157;28;20024;-72
2022/06/15 09:18:12;;;;;;;6.38;3.08;;;;;;;;;;5068279;28;20068;-69
2022/06/15 09:20:49;;;;;;;7.75;2.70;;;;;;;;;;5064166;28;20095;-70
2022/06/15 09:23:17;;;;;;;7.80;2.83;;;;;;;;;;5066721;28;20390;-70
2022/06/15 09:25:45;;;;;;;5.38;2.38;;;;;;;;;;5073792;28;20955;-70
2022/06/15 09:28:20;;;;;;;5.20;2.47;;;;;;;;;;5066139;28;20042;-69
2022/06/15 09:30:46;;;;;;;6.15;2.88;;;;;;;;;;5071301;28;20036;-71
2022/06/15 09:33:11;;;;;;;4.40;2.70;;;;;;;;;;5068299;28;20047;-69
2022/06/15 09:35:47;;;;;;;7.40;2.92;;;;;;;;;;5064811;28;20152;-71
2022/06/15 09:38:13;;;;;;;5.47;2.78;;;;;;;;;;5068363;28;20528;-70
2022/06/15 09:40:46;;;;;;;6.20;2.50;;;;;;;;;;5064240;28;20047;-71
2022/06/15 09:43:11;;;;;;;6.00;2.50;;;;;;;;;;5068373;28;20494;-70
2022/06/15 09:45:40;;;;;;;11.67;2.73;;;;;;;;;;5065339;28;20016;-70
2022/06/15 09:48:28;;;;;;;12.65;3.20;;;;;;;;;;5066779;28;20352;-69
2022/06/15 09:50:59;;;;;;;7.88;2.72;;;;;;;;;;5048565;28;20127;-73
2022/06/15 09:53:43;;;;;;;6.00;3.03;;;;;;;;;;5066519;28;20028;-70
2022/06/15 09:56:15;;;;;;;7.00;2.70;;;;;;;;;;5073500;28;20076;-69
2022/06/15 09:58:43;;;;;;;5.78;2.53;;;;;;;;;;5059054;28;20028;-70
2022/06/15 10:01:09;;;;;;;6.95;2.78;;;;;;;;;;5064017;28;20028;-71
2022/06/15 10:03:36;;;;;;;6.47;2.58;;;;;;;;;;5062280;28;20031;-69
2022/06/15 10:06:07;;;;;;;7.53;2.65;;;;;;;;;;5061471;28;20039;-69
2022/06/15 10:08:32;;;;;;;5.82;2.28;;;;;;;;;;5061790;28;20021;-69
2022/06/15 10:10:58;;;;;;;4.40;2.20;;;;;;;;;;5065891;28;20352;-64
2022/06/15 10:13:29;;;;;;;6.05;2.60;;;;;;;;;;5062920;28;20062;-76
2022/06/15 10:16:05;;;;;;;6.93;2.92;;;;;;;;;;5059740;28;20021;-69
2022/06/15 10:18:30;;;;;;;6.55;3.03;;;;;;;;;;5064456;28;20021;-68
2022/06/15 10:20:59;;;;;;;6.72;3.47;;;;;;;;;;5064688;28;20097;-70
2022/06/15 10:23:31;;;;;;;8.10;2.58;;;;;;;;;;5065114;28;20498;-69
2022/06/15 10:25:56;;;;;;;9.13;3.10;;;;;;;;;;5063319;28;20524;-69
2022/06/15 10:28:32;;;;;;;9.25;3.65;;;;;;;;;;5064315;28;20043;-71
2022/06/15 10:30:59;;;;;;;3.88;2.60;;;;;;;;;;5059155;28;20021;-70
2022/06/15 10:33:33;;;;;;;6.45;2.70;;;;;;;;;;5065199;28;20025;-73
2022/06/15 10:35:58;;;;;;;6.45;2.78;;;;;;;;;;5064413;28;20782;-70
2022/06/15 10:38:24;;;;;;;10.63;2.75;;;;;;;;;;5064146;28;20017;-71
2022/06/15 10:43:45;;;;;;;7.65;3.10;;;;;;;;;;5064770;28;20023;-69
2022/06/15 10:46:10;;;;;;;7.75;3.00;;;;;;;;;;5063613;28;20458;-71
2022/06/15 10:48:35;;;;;;;6.53;3.07;;;;;;;;;;5064520;28;20024;-69
2022/06/15 10:51:04;;;;;;;7.00;2.65;;;;;;;;;;5059122;28;20029;-70
2022/06/15 10:53:38;;;;;;;10.35;3.90;;;;;;;;;;5065952;28;20104;-71
2022/06/15 11:04:27;;;;;;;12.10;2.85;;;;;;;;;;5063113;28;20098;-69
2022/06/15 11:07:02;;;;;;;7.63;3.22;;;;;;;;;;5065428;28;20440;-68
2022/06/15 11:09:29;;;;;;;6.68;2.90;;;;;;;;;;5058272;28;20408;-68
2022/06/15 11:11:55;;;;;;;8.52;2.92;;;;;;;;;;5064119;28;20020;-69
2022/06/15 11:14:23;;;;;;;5.65;2.83;;;;;;;;;;5065368;28;20499;-70
2022/06/15 11:19:36;;;;;;;6.40;2.60;;;;;;;;;;5061537;28;20127;-69
2022/06/15 11:22:13;;;;;;;7.50;3.10;;;;;;;;;;5063590;28;20021;-68
2022/06/15 11:24:48;;;;;;;6.93;3.13;;;;;;;;;;5062666;28;20048;-68
2022/06/15 11:27:16;;;;;;;5.65;2.95;;;;;;;;;;5065178;28;20040;-68
2022/06/15 11:29:44;;;;;;;5.30;2.40;;;;;;;;;;5059825;28;20615;-66
2022/06/15 11:32:15;;;;;;;7.20;2.83;;;;;;;;;;5061823;28;20385;-68
2022/06/15 11:34:43;;;;;;;6.15;2.85;;;;;;;;;;5063149;28;20024;-68
2022/06/15 11:37:14;;;;;;;5.47;2.60;;;;;;;;;;5060263;28;20029;-67
2022/06/15 11:39:41;;;;;;;7.68;2.55;;;;;;;;;;5059594;28;20717;-65
2022/06/15 11:42:08;;;;;;;8.88;3.05;;;;;;;;;;5065001;28;20048;-66
2022/06/15 11:44:35;;;;;;;10.43;3.05;;;;;;;;;;5063714;28;20056;-67
2022/06/15 11:47:07;;;;;;;8.68;2.75;;;;;;;;;;5062336;28;20103;-66
2022/06/15 11:49:56;;;;;;;5.20;2.30;;;;;;;;;;5061381;28;20075;-66
2022/06/15 11:52:30;;;;;;;7.60;3.00;;;;;;;;;;5062538;28;20125;-68
2022/06/15 11:55:01;;;;;;;5.60;2.30;;;;;;;;;;5058211;28;20597;-66
2022/06/15 11:57:27;;;;;;;5.82;2.72;;;;;;;;;;5064476;28;20043;-68
2022/06/15 12:00:07;;;;;;;10.32;2.80;;;;;;;;;;5059977;28;20028;-67
2022/06/15 12:02:41;;;;;;;7.88;3.17;;;;;;;;;;5058188;28;20021;-66
2022/06/15 12:05:07;;;;;;;5.28;2.33;;;;;;;;;;5061940;28;20428;-68
2022/06/15 12:07:40;;;;;;;10.13;3.05;;;;;;;;;;5073324;28;20024;-71
2022/06/15 12:10:28;;;;;;;5.72;2.60;;;;;;;;;;5059012;28;20025;-68
2022/06/15 12:12:55;;;;;;;4.68;2.63;;;;;;;;;;5057488;28;20104;-66
2022/06/15 12:15:36;;;;;;;4.75;2.47;;;;;;;;;;5055724;28;20016;-67
2022/06/15 12:18:13;;;;;;;6.03;2.40;;;;;;;;;;5061976;28;20028;-66
2022/06/15 12:20:38;;;;;;;3.88;2.70;;;;;;;;;;5065818;28;20021;-67
2022/06/15 12:23:03;;;;;;;6.87;2.80;;;;;;;;;;5058599;28;20028;-68
2022/06/15 12:25:41;;;;;;;5.83;2.53;;;;;;;;;;5076641;28;20098;-68
2022/06/15 12:28:17;;;;;;;5.00;2.67;;;;;;;;;;5059847;28;20108;-68
2022/06/15 12:30:47;;;;;;;5.50;2.22;;;;;;;;;;5055216;28;20035;-68
2022/06/15 12:33:22;;;;;;;6.53;2.35;;;;;;;;;;5067606;28;20029;-68
2022/06/15 12:35:50;;;;;;;7.10;2.40;;;;;;;;;;5062350;28;20446;-67
2022/06/15 12:38:30;;;;;;;6.60;2.70;;;;;;;;;;5065244;28;20390;-69
2022/06/15 12:41:07;;;;;;;3.63;2.42;;;;;;;;;;5058410;28;20047;-69
2022/06/15 12:43:38;;;;;;;4.80;2.45;;;;;;;;;;5071939;28;20522;-67
2022/06/15 12:46:10;;;;;;;5.30;2.53;;;;;;;;;;5053362;28;20585;-69
2022/06/15 12:48:47;;;;;;;6.07;2.80;;;;;;;;;;5057652;28;20035;-67
2022/06/15 12:51:32;;;;;;;6.13;3.00;;;;;;;;;;5064556;28;20337;-71
2022/06/15 12:54:16;;;;;;;4.47;2.40;;;;;;;;;;5069448;28;20094;-67
2022/06/15 12:56:49;;;;;;;6.63;2.70;;;;;;;;;;5062498;28;20383;-66
2022/06/15 12:59:20;;;;;;;7.20;2.50;;;;;;;;;;5063512;28;20056;-67
2022/06/15 13:01:50;;;;;;;6.07;2.47;;;;;;;;;;5064310;28;20120;-67
2022/06/15 13:04:20;;;;;;;5.13;2.25;;;;;;;;;;5062950;28;20032;-67
2022/06/15 13:06:46;;;;;;;7.75;2.70;;;;;;;;;;5065265;28;20048;-67
2022/06/15 13:09:24;;;;;;;6.20;3.00;;;;;;;;;;5065547;28;20059;-67
2022/06/15 13:11:58;;;;;;;6.68;2.50;;;;;;;;;;5067469;28;20024;-68
2022/06/15 13:14:25;;;;;;;8.27;2.65;;;;;;;;;;5067619;28;20013;-66
2022/06/15 13:17:05;;;;;;;4.68;2.30;;;;;;;;;;5064032;28;20024;-67
2022/06/15 13:19:35;;;;;;;3.50;2.78;;;;;;;;;;5066925;28;20063;-69
2022/06/15 13:22:20;;;;;;;5.25;2.28;;;;;;;;;;5062866;28;20029;-68
2022/06/15 13:24:54;;;;;;;4.30;2.30;;;;;;;;;;5066076;28;20040;-68
2022/06/15 13:27:30;;;;;;;3.90;2.13;;;;;;;;;;5066289;28;20025;-68
2022/06/15 13:30:18;;;;;;;7.55;2.40;;;;;;;;;;5065812;28;20474;-68
2022/06/15 13:32:48;;;;;;;6.47;2.55;;;;;;;;;;5067800;28;20550;-68
2022/06/15 13:35:20;;;;;;;5.50;2.45;;;;;;;;;;5065078;28;20017;-67
2022/06/15 13:37:58;;;;;;;5.40;2.70;;;;;;;;;;5062754;28;20028;-68
2022/06/15 13:40:23;;;;;;;4.32;2.55;;;;;;;;;;5064361;28;20047;-68
2022/06/15 13:42:54;;;;;;;4.75;2.80;;;;;;;;;;5068065;28;20370;-66
2022/06/15 13:45:22;;;;;;;6.63;2.28;;;;;;;;;;5062087;28;20051;-66
2022/06/15 13:47:51;;;;;;;5.63;2.30;;;;;;;;;;5063887;28;20036;-68
2022/06/15 13:50:19;;;;;;;4.45;2.40;;;;;;;;;;5059219;28;20036;-69
2022/06/15 13:52:45;;;;;;;4.07;2.25;;;;;;;;;;5066946;28;20017;-67
2022/06/15 13:55:17;;;;;;;6.32;3.15;;;;;;;;;;5065365;28;20054;-67
2022/06/15 13:57:42;;;;;;;4.60;2.53;;;;;;;;;;5056241;28;20016;-67
2022/06/15 14:00:11;;;;;;;6.90;2.53;;;;;;;;;;5060799;28;20028;-70
2022/06/15 14:02:48;;;;;;;6.57;2.80;;;;;;;;;;5067382;28;20012;-68
2022/06/15 14:05:16;;;;;;;4.38;2.53;;;;;;;;;;5064081;28;20035;-67
2022/06/15 14:07:46;;;;;;;5.38;2.53;;;;;;;;;;5063958;28;20036;-68
2022/06/15 14:10:18;;;;;;;6.45;2.40;;;;;;;;;;5062989;28;20398;-67
2022/06/15 14:13:01;;;;;;;6.15;2.70;;;;;;;;;;5054666;28;20440;-67
2022/06/15 14:15:45;;;;;;;5.22;2.25;;;;;;;;;;5063438;28;20032;-67
2022/06/15 14:18:13;;;;;;;3.63;2.25;;;;;;;;;;5066937;28;20020;-67
2022/06/15 14:20:40;;;;;;;5.40;2.42;;;;;;;;;;5059620;28;20016;-67
2022/06/15 14:23:06;;;;;;;3.50;2.45;;;;;;;;;;5062305;28;20127;-67
2022/06/15 14:25:42;;;;;;;5.85;2.63;;;;;;;;;;5064618;28;20067;-67
2022/06/15 14:28:09;;;;;;;3.65;2.67;;;;;;;;;;5063871;28;20074;-67
2022/06/15 14:30:35;;;;;;;3.75;2.40;;;;;;;;;;5065865;28;20475;-68
2022/06/15 14:33:02;;;;;;;4.25;2.60;;;;;;;;;;5063059;28;20585;-69
2022/06/15 14:35:28;;;;;;;4.63;2.55;;;;;;;;;;5067307;28;20052;-71
2022/06/15 14:37:57;;;;;;;5.28;2.50;;;;;;;;;;5063349;28;20060;-69
2022/06/15 14:40:31;;;;;;;6.43;2.70;;;;;;;;;;5064765;28;20097;-68
2022/06/15 14:42:57;;;;;;;5.82;2.30;;;;;;;;;;5061660;28;20032;-68
2022/06/15 14:45:26;;;;;;;4.18;2.58;;;;;;;;;;5062621;28;20359;-68
2022/06/15 14:47:56;;;;;;;3.28;2.60;;;;;;;;;;5066217;28;20033;-68
2022/06/15 14:50:22;;;;;;;7.65;2.80;;;;;;;;;;5068363;28;20441;-67
2022/06/15 14:52:47;;;;;;;6.40;2.25;;;;;;;;;;5065604;28;20025;-67
2022/06/15 14:55:18;;;;;;;15.70;2.97;;;;;;;;;;5052010;28;20098;-67
2022/06/15 14:57:43;;;;;;;5.50;2.65;;;;;;;;;;5054880;28;20023;-68
2022/06/15 15:00:18;;;;;;;5.63;2.30;;;;;;;;;;5064185;28;20539;-68
2022/06/15 15:02:47;;;;;;;7.85;2.67;;;;;;;;;;5059447;28;20570;-69
2022/06/15 15:05:12;;;;;;;6.55;2.55;;;;;;;;;;5060561;28;20441;-68
2022/06/15 15:10:29;;;;;;;3.55;2.30;;;;;;;;;;5058160;28;20032;-69